Terminal Aerodrome Forecast
Issued by NWS Omaha/Valley, NE

Home | Current Version | Previous Version | Text Only | Print | Product List | Glossary On
Versions: 1 2 3 4 5 6 7 8 9 10 11 12 13 14 15 16 17 18 19 20 21 22 23 24 25 26 27 28 29 30 31 32 33 34
000
FTUS43 KOAX 281720
TAFLNK
TAF
KLNK 281720Z 2818/0118 18010KT 3SM -SN BKN025 OVC035
      TEMPO 2818/2821 1SM -SN BR OVC012
     FM282100 17011KT P6SM OVC012
      TEMPO 2821/2824 4SM -SN
     FM010300 16008KT P6SM OVC050
     FM010800 22004KT P6SM OVC100=

USA.gov is the U.S. government's official web portal to all federal, state and local government web resources and services.